Time;durP1;ratioP1;P1;durP2;ratioP2;P2;SDS_P1;SDS_P2;PMS_P1;PMS_P2;Temp;Humidity;BMP_temperature;BMP_pressure;BME280_temperature;BME280_humidity;BME280_pressure;Samples;Min_cycle;Max_cycle;Signal;HPM_P1;HPM_P2
2023/10/15 00:00:46;;;;;;;1.55;0.10;;;16.40;98.00;;;;;;5039932;28;20087;-81
2023/10/15 00:03:12;;;;;;;0.28;0.05;;;16.20;99.90;;;;;;5039850;28;20069;-83
2023/10/15 00:05:37;;;;;;;0.10;0.10;;;16.00;99.90;;;;;;5054760;28;20049;-83
2023/10/15 00:08:03;;;;;;;0.45;0.10;;;15.90;99.90;;;;;;5055006;28;20085;-80
2023/10/15 00:10:34;;;;;;;3.30;0.20;;;15.80;99.90;;;;;;5055017;28;20480;-79
2023/10/15 00:13:00;;;;;;;1.75;0.08;;;15.60;99.90;;;;;;5039184;28;20052;-81
2023/10/15 00:15:28;;;;;;;0.10;0.10;;;15.50;99.90;;;;;;5053803;28;20017;-81
2023/10/15 00:17:59;;;;;;;0.10;0.10;;;15.40;99.90;;;;;;5039618;28;20025;-80
2023/10/15 00:20:31;;;;;;;0.00;0.00;;;15.30;99.90;;;;;;5039537;28;20025;-82
2023/10/15 00:23:09;;;;;;;0.10;0.10;;;15.10;99.90;;;;;;5054523;28;20036;-80
2023/10/15 00:25:37;;;;;;;0.10;0.10;;;15.00;99.90;;;;;;5054304;28;20026;-81
2023/10/15 00:28:05;;;;;;;0.20;0.10;;;14.90;99.90;;;;;;5039417;28;20025;-81
2023/10/15 00:30:32;;;;;;;1.48;0.10;;;14.80;99.90;;;;;;5054648;28;20036;-81
2023/10/15 00:33:03;;;;;;;0.00;0.00;;;14.70;99.90;;;;;;5054002;28;20029;-82
2023/10/15 00:35:33;;;;;;;0.20;0.20;;;14.60;99.90;;;;;;5055006;28;20040;-81
2023/10/15 00:37:59;;;;;;;0.73;0.10;;;14.60;99.90;;;;;;5055677;28;20022;-81
2023/10/15 00:40:27;;;;;;;0.00;0.00;;;14.50;99.90;;;;;;5040114;28;20029;-81
2023/10/15 00:42:53;;;;;;;0.10;0.10;;;14.40;99.90;;;;;;5055276;28;20490;-81
2023/10/15 00:45:21;;;;;;;7.15;0.30;;;14.40;99.90;;;;;;5039257;28;20052;-81
2023/10/15 00:47:52;;;;;;;3.97;0.10;;;14.30;99.90;;;;;;5039170;28;20029;-81
2023/10/15 00:50:19;;;;;;;0.10;0.10;;;14.30;99.90;;;;;;5039102;28;20104;-83
2023/10/15 00:52:46;;;;;;;0.63;0.10;;;14.20;99.90;;;;;;5039135;28;20029;-80
2023/10/15 00:55:17;;;;;;;0.65;0.25;;;14.20;99.90;;;;;;5038748;28;20018;-81
2023/10/15 00:57:47;;;;;;;0.10;0.10;;;14.10;99.90;;;;;;5038926;28;20028;-80
2023/10/15 01:03:03;;;;;;;0.17;0.10;;;14.20;99.90;;;;;;5039960;28;20032;-82
2023/10/15 01:05:33;;;;;;;0.30;0.20;;;14.10;99.90;;;;;;5054210;28;20034;-82
2023/10/15 01:08:03;;;;;;;1.38;0.60;;;14.10;99.90;;;;;;5040666;28;20018;-81
2023/10/15 01:10:36;;;;;;;0.20;0.20;;;14.10;99.90;;;;;;5040184;28;20033;-79
2023/10/15 01:13:10;;;;;;;0.52;0.10;;;14.00;99.90;;;;;;5039959;28;20025;-81
2023/10/15 01:15:41;;;;;;;0.20;0.20;;;14.00;99.90;;;;;;5039012;28;20076;-81
2023/10/15 01:18:07;;;;;;;1.10;0.28;;;13.90;99.90;;;;;;5055898;28;20080;-83
2023/10/15 01:20:36;;;;;;;0.10;0.10;;;13.90;99.90;;;;;;5042141;28;20025;-80
2023/10/15 01:23:02;;;;;;;0.30;0.30;;;13.90;99.90;;;;;;5057224;28;20489;-81
2023/10/15 01:25:32;;;;;;;0.60;0.60;;;13.80;99.90;;;;;;5041075;28;20080;-82
2023/10/15 01:28:00;;;;;;;0.35;0.22;;;13.70;99.90;;;;;;5056184;28;20060;-81
2023/10/15 01:30:27;;;;;;;0.22;0.20;;;13.70;99.90;;;;;;5042954;28;20092;-81
2023/10/15 01:32:54;;;;;;;0.00;0.00;;;13.60;99.90;;;;;;5042474;28;20017;-83
2023/10/15 01:35:20;;;;;;;1.00;0.20;;;13.70;99.90;;;;;;5042030;28;20025;-81
2023/10/15 01:37:59;;;;;;;0.20;0.20;;;13.60;99.90;;;;;;5042244;28;20036;-81
2023/10/15 01:40:59;;;;;;;0.43;0.10;;;13.60;99.90;;;;;;5042121;28;20032;-81
2023/10/15 01:43:20;;;;;;;0.10;0.10;;;13.60;99.90;;;;;;5040608;28;20026;-79
2023/10/15 01:45:47;;;;;;;4.93;0.20;;;13.40;99.90;;;;;;5057006;28;20021;-80
2023/10/15 01:48:18;;;;;;;0.13;0.13;;;13.40;99.90;;;;;;5044796;28;20397;-81
2023/10/15 01:50:46;;;;;;;0.55;0.30;;;13.30;99.90;;;;;;5059382;28;20029;-81
2023/10/15 01:53:11;;;;;;;0.30;0.30;;;13.20;99.90;;;;;;5058941;28;20025;-81
2023/10/15 01:55:37;;;;;;;1.00;0.25;;;13.20;99.90;;;;;;5058273;28;20112;-81
2023/10/15 01:58:04;;;;;;;0.30;0.22;;;13.10;99.90;;;;;;5043273;28;20021;-80
2023/10/15 02:00:38;;;;;;;1.30;0.17;;;13.00;99.90;;;;;;5043192;28;20469;-80
2023/10/15 02:03:04;;;;;;;1.35;0.20;;;13.00;99.90;;;;;;5059420;28;20026;-78
2023/10/15 02:05:42;;;;;;;1.52;0.55;;;12.90;99.90;;;;;;5043697;28;20025;-79
2023/10/15 02:08:12;;;;;;;1.20;0.40;;;12.90;99.90;;;;;;5060905;28;20025;-79
2023/10/15 02:10:39;;;;;;;3.50;0.60;;;13.00;99.90;;;;;;5044870;28;20499;-80
2023/10/15 02:13:08;;;;;;;0.20;0.10;;;12.90;99.90;;;;;;5059470;28;20048;-81
2023/10/15 02:15:39;;;;;;;2.42;0.30;;;12.90;99.90;;;;;;5043842;28;20021;-80
2023/10/15 02:18:13;;;;;;;1.30;0.40;;;12.80;99.90;;;;;;5059525;28;20057;-81
2023/10/15 02:20:47;;;;;;;0.30;0.10;;;12.80;99.90;;;;;;5065012;28;20085;-83
2023/10/15 02:23:15;;;;;;;1.00;0.20;;;12.80;99.90;;;;;;5068431;28;20029;-82
2023/10/15 02:25:48;;;;;;;0.38;0.20;;;12.80;99.90;;;;;;5065698;28;20056;-82
2023/10/15 02:28:17;;;;;;;0.47;0.15;;;12.80;99.90;;;;;;5064518;28;20025;-82
2023/10/15 02:30:46;;;;;;;0.25;0.10;;;12.70;99.90;;;;;;5064388;28;20034;-82
2023/10/15 02:33:18;;;;;;;1.48;0.40;;;12.70;99.90;;;;;;5063070;28;20036;-82
2023/10/15 02:35:46;;;;;;;0.20;0.20;;;12.70;99.90;;;;;;5063322;28;20035;-81
2023/10/15 02:38:13;;;;;;;1.35;0.20;;;12.60;99.90;;;;;;5047617;28;20096;-82
2023/10/15 02:41:21;;;;;;;0.65;0.30;;;12.60;99.90;;;;;;5046955;28;20179;-81
2023/10/15 02:43:28;;;;;;;0.13;0.10;;;12.60;99.90;;;;;;5043745;28;20034;-81
2023/10/15 02:45:55;;;;;;;0.20;0.20;;;12.60;99.90;;;;;;5061487;28;20167;-80
2023/10/15 02:48:21;;;;;;;0.30;0.30;;;12.60;99.90;;;;;;5061712;28;20098;-82
2023/10/15 02:51:00;;;;;;;0.52;0.20;;;12.60;99.90;;;;;;5046703;28;20025;-81
2023/10/15 02:53:34;;;;;;;0.60;0.20;;;12.60;99.90;;;;;;5046269;28;20442;-80
2023/10/15 02:56:00;;;;;;;0.63;0.28;;;12.50;99.90;;;;;;5059769;28;20509;-81
2023/10/15 02:58:29;;;;;;;0.98;0.30;;;12.50;99.90;;;;;;5043702;28;20030;-81
2023/10/15 03:00:59;;;;;;;1.13;0.60;;;12.50;99.90;;;;;;5045069;28;20029;-80
2023/10/15 03:03:33;;;;;;;0.10;0.10;;;12.50;99.90;;;;;;5045820;28;20021;-82
2023/10/15 03:05:59;;;;;;;0.20;0.20;;;12.50;99.90;;;;;;5042347;28;20553;-82
2023/10/15 03:08:31;;;;;;;0.70;0.65;;;12.50;99.90;;;;;;5042397;28;20040;-81
2023/10/15 03:11:02;;;;;;;1.13;0.50;;;12.40;99.90;;;;;;5042240;28;20032;-81
2023/10/15 03:13:28;;;;;;;1.10;0.60;;;12.40;99.90;;;;;;5058959;28;20018;-83
2023/10/15 03:15:57;;;;;;;2.22;0.50;;;12.50;99.90;;;;;;5059209;28;20026;-83
2023/10/15 03:18:23;;;;;;;1.73;0.28;;;12.40;99.90;;;;;;5043722;28;20026;-82
2023/10/15 03:21:09;;;;;;;1.30;0.40;;;12.50;99.90;;;;;;5042376;28;20401;-82
2023/10/15 03:23:35;;;;;;;0.75;0.40;;;12.40;99.90;;;;;;5058280;28;20489;-81
2023/10/15 03:26:00;;;;;;;1.75;0.80;;;12.40;99.90;;;;;;5043695;28;20030;-82
2023/10/15 03:28:26;;;;;;;3.72;0.50;;;12.50;99.90;;;;;;5059129;28;20493;-80
2023/10/15 03:30:55;;;;;;;0.57;0.40;;;12.40;99.90;;;;;;5043123;28;20613;-81
2023/10/15 03:33:29;;;;;;;0.45;0.32;;;12.40;99.90;;;;;;5043952;28;20394;-80
2023/10/15 03:35:55;;;;;;;1.05;0.40;;;12.30;99.90;;;;;;5057181;28;20033;-80
2023/10/15 03:38:24;;;;;;;2.90;0.50;;;12.30;99.90;;;;;;5043323;28;20032;-80
2023/10/15 03:40:50;;;;;;;1.00;0.40;;;12.40;99.90;;;;;;5041618;28;20084;-80
2023/10/15 03:43:20;;;;;;;0.60;0.40;;;12.30;99.90;;;;;;5057127;28;20021;-82
2023/10/15 03:45:53;;;;;;;0.90;0.40;;;12.20;99.90;;;;;;5042495;28;20049;-80
2023/10/15 03:48:22;;;;;;;0.57;0.30;;;12.20;99.90;;;;;;5056467;28;20754;-80
2023/10/15 03:50:53;;;;;;;2.53;0.60;;;12.30;99.90;;;;;;5056726;28;20116;-80
2023/10/15 03:53:31;;;;;;;1.35;0.30;;;12.30;99.90;;;;;;5056671;28;20072;-81
2023/10/15 03:56:01;;;;;;;0.35;0.35;;;12.30;99.90;;;;;;5040531;28;20071;-80
2023/10/15 03:58:28;;;;;;;0.95;0.52;;;12.30;99.90;;;;;;5040379;28;20045;-82
2023/10/15 04:01:16;;;;;;;0.93;0.75;;;12.10;99.90;;;;;;5041318;28;20014;-80
2023/10/15 04:03:43;;;;;;;1.17;0.40;;;12.10;99.90;;;;;;5042792;28;20144;-83
2023/10/15 04:06:10;;;;;;;2.17;0.70;;;12.10;99.90;;;;;;5041298;28;20044;-80
2023/10/15 04:08:39;;;;;;;3.92;0.77;;;12.00;99.90;;;;;;5055043;28;20485;-80
2023/10/15 04:11:08;;;;;;;1.75;0.60;;;11.90;99.90;;;;;;5055283;28;20048;-80
2023/10/15 04:13:35;;;;;;;3.85;0.90;;;11.90;99.90;;;;;;5056128;28;20032;-80
2023/10/15 04:16:00;;;;;;;2.50;0.80;;;11.80;99.90;;;;;;5055411;28;20037;-79
2023/10/15 04:18:26;;;;;;;1.70;0.50;;;11.90;99.90;;;;;;5039950;28;20029;-81
2023/10/15 04:20:53;;;;;;;0.80;0.80;;;11.80;99.90;;;;;;5039532;28;20415;-80
2023/10/15 04:23:31;;;;;;;2.13;0.82;;;11.80;99.90;;;;;;5039879;28;20719;-80
2023/10/15 04:26:09;;;;;;;1.50;0.70;;;11.70;99.90;;;;;;5038916;28;20026;-79
2023/10/15 04:28:36;;;;;;;2.25;1.05;;;11.70;99.90;;;;;;5041094;28;20017;-79
2023/10/15 04:31:10;;;;;;;2.83;1.20;;;11.70;99.90;;;;;;5041210;28;20216;-79
2023/10/15 04:33:35;;;;;;;1.33;0.65;;;11.70;99.90;;;;;;5039783;28;20022;-80
2023/10/15 04:36:01;;;;;;;4.53;1.00;;;11.70;99.90;;;;;;5039862;28;20040;-79
2023/10/15 04:38:28;;;;;;;2.05;1.13;;;11.70;99.90;;;;;;5038953;28;20033;-81
2023/10/15 04:43:27;;;;;;;0.88;0.55;;;11.60;99.90;;;;;;5041282;28;20057;-81
2023/10/15 04:45:56;;;;;;;1.15;0.70;;;11.60;99.90;;;;;;5040573;28;20037;-80
2023/10/15 04:48:36;;;;;;;1.70;0.90;;;11.40;99.90;;;;;;5039611;28;20021;-82
2023/10/15 04:51:12;;;;;;;2.35;1.30;;;11.50;99.90;;;;;;5039055;28;20048;-80
2023/10/15 04:53:42;;;;;;;2.55;1.10;;;11.50;99.90;;;;;;5040115;28;20026;-80
2023/10/15 04:56:08;;;;;;;1.88;1.45;;;11.50;99.90;;;;;;5039888;28;20074;-81
2023/10/15 04:58:34;;;;;;;5.50;1.10;;;11.50;99.90;;;;;;5040823;28;20025;-81
2023/10/15 05:01:01;;;;;;;0.90;0.90;;;11.40;99.90;;;;;;5040606;28;20086;-80
2023/10/15 05:03:26;;;;;;;2.22;1.17;;;11.50;99.90;;;;;;5041317;28;20018;-78
2023/10/15 05:05:53;;;;;;;2.25;1.00;;;11.40;99.90;;;;;;5040350;28;20032;-80
2023/10/15 05:08:19;;;;;;;1.77;0.90;;;11.50;99.90;;;;;;5040792;28;20389;-82
2023/10/15 05:10:46;;;;;;;1.70;1.10;;;11.50;99.90;;;;;;5040739;28;20037;-80
2023/10/15 05:13:12;;;;;;;4.20;0.95;;;11.50;99.90;;;;;;5041067;28;20028;-80
2023/10/15 05:15:38;;;;;;;1.95;0.90;;;11.50;99.90;;;;;;5037632;28;20048;-81
2023/10/15 05:18:04;;;;;;;5.00;1.33;;;11.50;99.90;;;;;;5039802;28;20018;-81
2023/10/15 05:20:31;;;;;;;4.07;1.50;;;11.40;99.90;;;;;;5041309;28;20118;-78
2023/10/15 05:22:57;;;;;;;2.83;1.15;;;11.40;99.90;;;;;;5043550;28;20033;-80
2023/10/15 05:25:22;;;;;;;5.28;2.25;;;11.30;99.90;;;;;;5044618;28;20029;-80
2023/10/15 05:27:51;;;;;;;5.30;1.67;;;12.40;99.90;;;;;;5044189;28;20116;-80
2023/10/15 05:30:17;;;;;;;2.55;1.33;;;11.90;99.90;;;;;;5045025;28;20508;-81
2023/10/15 05:32:48;;;;;;;2.55;1.15;;;11.80;99.90;;;;;;5044398;28;20025;-79
2023/10/15 05:35:17;;;;;;;3.63;1.40;;;11.70;99.90;;;;;;5045185;28;20026;-80
2023/10/15 05:37:44;;;;;;;6.10;1.25;;;11.50;99.90;;;;;;5044366;28;20026;-80
2023/10/15 05:40:15;;;;;;;5.13;1.92;;;11.50;99.90;;;;;;5042351;28;20091;-80
2023/10/15 05:42:41;;;;;;;2.05;1.42;;;11.40;99.90;;;;;;5043657;28;20374;-79
2023/10/15 05:45:07;;;;;;;1.60;1.17;;;11.40;99.90;;;;;;5040892;28;20079;-80
2023/10/15 05:47:36;;;;;;;2.15;1.05;;;11.40;99.90;;;;;;5041646;28;20409;-79
2023/10/15 05:50:06;;;;;;;4.72;1.00;;;11.50;99.90;;;;;;5041838;28;20029;-80
2023/10/15 05:52:32;;;;;;;0.93;0.80;;;11.40;99.90;;;;;;5057826;28;20030;-80
2023/10/15 05:55:00;;;;;;;3.13;1.58;;;11.40;99.90;;;;;;5041979;28;20071;-79
2023/10/15 05:57:25;;;;;;;1.67;1.30;;;11.50;99.90;;;;;;5055651;28;20025;-81
2023/10/15 05:59:51;;;;;;;5.07;2.53;;;11.50;99.90;;;;;;5052576;28;20428;-81
2023/10/15 06:02:17;;;;;;;9.43;3.65;;;11.50;99.90;;;;;;5053144;28;20029;-82
2023/10/15 06:04:43;;;;;;;12.90;5.05;;;11.50;99.90;;;;;;5050352;28;20608;-82
2023/10/15 06:07:10;;;;;;;8.55;3.75;;;11.40;99.90;;;;;;5049830;28;20558;-80
2023/10/15 06:09:36;;;;;;;7.60;5.45;;;11.50;99.90;;;;;;5050714;28;20029;-80
2023/10/15 06:12:01;;;;;;;28.85;22.00;;;11.40;99.90;;;;;;5048446;28;20512;-80
2023/10/15 06:14:30;;;;;;;7.10;6.43;;;11.50;99.90;;;;;;5046823;28;20022;-80
2023/10/15 06:16:56;;;;;;;4.72;1.88;;;11.50;99.90;;;;;;5063568;28;20036;-80
2023/10/15 06:19:22;;;;;;;9.73;1.77;;;11.60;99.90;;;;;;5044541;28;20029;-81
2023/10/15 06:21:47;;;;;;;2.85;1.63;;;11.60;99.90;;;;;;5044497;28;20033;-79
2023/10/15 06:24:14;;;;;;;6.10;2.65;;;11.70;99.90;;;;;;5045085;28;20021;-80
2023/10/15 06:26:39;;;;;;;5.50;2.50;;;11.70;99.90;;;;;;5043756;28;20032;-80
2023/10/15 06:29:06;;;;;;;31.00;17.60;;;11.60;99.90;;;;;;5044837;28;20026;-82
2023/10/15 06:31:32;;;;;;;9.77;7.43;;;11.60;99.90;;;;;;5043395;28;20057;-80
2023/10/15 06:33:58;;;;;;;21.95;15.20;;;11.70;99.90;;;;;;5042910;28;20485;-80
2023/10/15 06:36:23;;;;;;;7.40;5.78;;;11.70;99.90;;;;;;5044882;28;20044;-82
2023/10/15 06:38:52;;;;;;;5.97;3.33;;;11.70;99.90;;;;;;5043503;28;20025;-81
2023/10/15 06:41:18;;;;;;;9.50;4.68;;;11.70;99.90;;;;;;5043524;28;20032;-80
2023/10/15 06:43:43;;;;;;;7.13;5.65;;;11.70;99.90;;;;;;5044022;28;20030;-79
2023/10/15 06:46:09;;;;;;;11.07;5.18;;;11.60;99.90;;;;;;5043763;28;20029;-78
2023/10/15 06:48:35;;;;;;;3.22;2.90;;;11.60;99.90;;;;;;5042182;28;20102;-81
2023/10/15 06:51:04;;;;;;;4.00;2.45;;;11.60;99.90;;;;;;5060066;28;20090;-80
2023/10/15 06:53:34;;;;;;;2.97;1.75;;;11.60;99.90;;;;;;5044012;28;20032;-79
2023/10/15 06:56:00;;;;;;;3.42;1.30;;;11.70;99.90;;;;;;5041211;28;20029;-80
2023/10/15 06:58:28;;;;;;;5.80;3.08;;;11.80;99.90;;;;;;5040437;28;20022;-78
2023/10/15 07:00:58;;;;;;;3.05;1.90;;;11.90;99.90;;;;;;5043694;28;20489;-79
2023/10/15 07:03:23;;;;;;;2.95;1.73;;;11.90;99.90;;;;;;5041782;28;20040;-78
2023/10/15 07:05:49;;;;;;;2.63;1.52;;;11.90;99.90;;;;;;5041016;28;20022;-80
2023/10/15 07:08:16;;;;;;;1.42;1.33;;;11.90;99.90;;;;;;5042637;28;20022;-80
2023/10/15 07:10:42;;;;;;;13.07;6.53;;;11.80;99.90;;;;;;5042539;28;20028;-80
2023/10/15 07:13:08;;;;;;;5.03;4.55;;;11.70;99.90;;;;;;5043558;28;20091;-80
2023/10/15 07:15:36;;;;;;;1.75;1.40;;;11.80;99.90;;;;;;5042659;28;20053;-79
2023/10/15 07:18:03;;;;;;;2.95;1.38;;;11.90;99.90;;;;;;5042094;28;20021;-77
2023/10/15 07:20:29;;;;;;;8.65;3.65;;;11.90;99.90;;;;;;5040262;28;20022;-79
2023/10/15 07:22:56;;;;;;;3.47;2.67;;;11.90;99.90;;;;;;5040329;28;20044;-79
2023/10/15 07:25:26;;;;;;;2.90;1.48;;;11.90;99.90;;;;;;5041269;28;20021;-79
2023/10/15 07:27:54;;;;;;;2.33;1.90;;;11.90;99.90;;;;;;5040945;28;20029;-79
2023/10/15 07:30:20;;;;;;;4.75;1.88;;;11.90;99.90;;;;;;5040873;28;20105;-81
2023/10/15 07:32:46;;;;;;;1.60;1.50;;;12.10;99.90;;;;;;5055924;28;20682;-82
2023/10/15 07:35:13;;;;;;;2.90;1.38;;;12.20;99.90;;;;;;5055683;28;20025;-79
2023/10/15 07:37:44;;;;;;;0.95;0.95;;;12.40;99.90;;;;;;5039269;28;20025;-79
2023/10/15 07:40:18;;;;;;;2.47;2.28;;;12.50;99.90;;;;;;5040016;28;20512;-79
2023/10/15 07:42:48;;;;;;;5.10;1.90;;;12.20;99.90;;;;;;5055893;28;20489;-79
2023/10/15 07:45:14;;;;;;;7.60;3.00;;;12.20;99.90;;;;;;5055820;28;20093;-81
2023/10/15 07:47:40;;;;;;;3.35;2.20;;;12.10;99.90;;;;;;5041433;28;20546;-79
2023/10/15 07:50:08;;;;;;;3.47;2.13;;;12.00;99.90;;;;;;5056051;28;20029;-79
2023/10/15 07:52:35;;;;;;;2.35;2.10;;;12.10;99.90;;;;;;5054757;28;20021;-79
2023/10/15 07:55:01;;;;;;;3.05;1.33;;;12.10;99.90;;;;;;5039599;28;20026;-78
2023/10/15 07:57:27;;;;;;;2.08;1.88;;;12.00;99.90;;;;;;5054278;28;20038;-79
2023/10/15 07:59:58;;;;;;;5.13;1.30;;;12.00;99.90;;;;;;5040451;28;20029;-78
2023/10/15 08:02:27;;;;;;;7.55;3.67;;;12.10;99.90;;;;;;5054672;28;20496;-78
2023/10/15 08:04:56;;;;;;;3.53;1.90;;;12.10;99.90;;;;;;5054870;28;20541;-77
2023/10/15 08:07:22;;;;;;;2.90;2.38;;;12.10;99.90;;;;;;5038865;28;20045;-79
2023/10/15 08:09:51;;;;;;;17.73;7.53;;;12.10;99.90;;;;;;5039748;28;20029;-80
2023/10/15 08:12:17;;;;;;;8.40;4.60;;;12.10;99.90;;;;;;5038016;28;20420;-79
2023/10/15 08:14:45;;;;;;;9.88;4.93;;;12.10;99.90;;;;;;5038812;28;20020;-79
2023/10/15 08:17:11;;;;;;;9.02;4.78;;;12.10;99.90;;;;;;5037353;28;20021;-80
2023/10/15 08:19:37;;;;;;;11.45;5.68;;;12.10;99.90;;;;;;5035819;28;20025;-80
2023/10/15 08:22:03;;;;;;;7.82;4.18;;;12.10;99.90;;;;;;5052863;28;20021;-79
2023/10/15 08:24:28;;;;;;;4.40;1.70;;;12.00;99.90;;;;;;5036448;28;20101;-77
2023/10/15 08:26:54;;;;;;;1.42;1.20;;;12.00;99.90;;;;;;5052601;28;20614;-80
2023/10/15 08:29:20;;;;;;;1.48;1.38;;;12.10;99.90;;;;;;5036293;28;20037;-77
2023/10/15 08:31:48;;;;;;;2.00;1.23;;;12.20;99.90;;;;;;5033922;28;20071;-77
2023/10/15 08:34:14;;;;;;;3.42;1.65;;;12.20;99.90;;;;;;5036785;28;20385;-79
2023/10/15 08:36:40;;;;;;;4.72;1.58;;;12.40;99.90;;;;;;5040355;28;20025;-81
2023/10/15 08:39:08;;;;;;;2.63;1.58;;;12.40;99.90;;;;;;5040044;28;20109;-79
2023/10/15 08:41:43;;;;;;;5.20;1.90;;;12.40;99.90;;;;;;5039095;28;20057;-82
2023/10/15 08:44:10;;;;;;;2.88;1.88;;;12.50;99.90;;;;;;5037442;28;20068;-81
2023/10/15 08:46:39;;;;;;;3.42;1.23;;;12.50;99.90;;;;;;5036260;28;20030;-80
2023/10/15 08:49:08;;;;;;;3.80;1.40;;;12.60;99.90;;;;;;5037889;28;20041;-81
2023/10/15 08:51:35;;;;;;;6.82;1.75;;;12.70;99.90;;;;;;5036690;28;20067;-77
2023/10/15 08:54:02;;;;;;;3.15;1.30;;;12.70;99.90;;;;;;5035460;28;20116;-81
2023/10/15 08:56:30;;;;;;;5.40;1.38;;;12.70;99.90;;;;;;5035256;28;20021;-79
2023/10/15 08:58:57;;;;;;;3.63;1.13;;;12.50;99.90;;;;;;5057799;23;20132;-78
2023/10/15 09:01:23;;;;;;;5.53;1.92;;;12.50;99.90;;;;;;5040516;28;20022;-82
2023/10/15 09:03:52;;;;;;;3.05;1.27;;;12.50;99.90;;;;;;5041005;28;20014;-81
2023/10/15 09:06:19;;;;;;;2.38;0.82;;;12.40;99.90;;;;;;5039334;28;20021;-81
2023/10/15 09:08:46;;;;;;;2.42;1.23;;;12.50;99.90;;;;;;5028254;28;20067;-83
2023/10/15 09:11:12;;;;;;;5.32;1.48;;;12.50;99.90;;;;;;5041329;28;20028;-82
2023/10/15 09:13:38;;;;;;;2.25;1.20;;;12.40;99.90;;;;;;5040836;28;20021;-82
2023/10/15 09:16:06;;;;;;;1.80;1.33;;;12.50;99.90;;;;;;5056399;28;20021;-82
2023/10/15 09:18:37;;;;;;;1.83;1.13;;;13.50;99.90;;;;;;5060223;28;20041;-83
2023/10/15 09:21:04;;;;;;;1.77;1.23;;;13.30;99.90;;;;;;5058205;28;20160;-82
2023/10/15 09:23:37;;;;;;;3.85;1.45;;;12.90;99.90;;;;;;5059038;28;20049;-82
2023/10/15 09:26:07;;;;;;;2.97;1.52;;;12.80;99.90;;;;;;5058354;28;20032;-84
2023/10/15 09:28:35;;;;;;;2.95;1.13;;;12.40;99.90;;;;;;5058118;28;20026;-80
2023/10/15 09:31:06;;;;;;;10.80;8.95;;;12.30;99.90;;;;;;5066567;28;20024;-81
2023/10/15 09:33:33;;;;;;;24.33;13.60;;;12.40;99.90;;;;;;5070619;28;20080;-81
2023/10/15 09:36:02;;;;;;;7.15;5.78;;;12.20;99.90;;;;;;5052855;28;20017;-81
2023/10/15 09:38:31;;;;;;;4.28;3.03;;;12.30;99.90;;;;;;5041157;28;20052;-80
2023/10/15 09:40:58;;;;;;;2.95;1.80;;;12.30;99.90;;;;;;5034921;28;20022;-80
2023/10/15 09:43:25;;;;;;;1.92;1.20;;;12.50;99.90;;;;;;5033897;28;20021;-79
2023/10/15 09:45:57;;;;;;;5.68;3.70;;;14.10;99.90;;;;;;5033166;28;20026;-78
2023/10/15 09:48:26;;;;;;;5.88;2.58;;;14.10;99.90;;;;;;5032139;28;20501;-78
2023/10/15 09:50:59;;;;;;;8.10;2.42;;;13.40;99.90;;;;;;5031920;28;20034;-78
2023/10/15 09:53:29;;;;;;;6.93;1.33;;;13.30;99.90;;;;;;5032198;28;20107;-78
2023/10/15 09:55:57;;;;;;;4.38;1.42;;;13.10;99.90;;;;;;5031927;28;20014;-77
2023/10/15 09:58:24;;;;;;;2.05;0.93;;;12.40;99.90;;;;;;5047007;28;20508;-78
2023/10/15 10:01:12;;;;;;;3.65;1.48;;;12.40;99.90;;;;;;5032741;28;20033;-78
2023/10/15 10:03:49;;;;;;;5.57;1.60;;;12.30;99.90;;;;;;5049319;28;20044;-79
2023/10/15 10:06:53;;;;;;;1.95;1.00;;;12.20;99.90;;;;;;5047643;28;20028;-79
2023/10/15 10:09:56;;;;;;;6.18;3.55;;;12.00;99.90;;;;;;5032913;28;20032;-77
2023/10/15 10:13:05;;;;;;;5.32;2.58;;;12.20;99.90;;;;;;5053023;28;20025;-80
2023/10/15 10:15:47;;;;;;;4.38;2.30;;;12.20;99.90;;;;;;4979200;28;20029;-81
2023/10/15 10:18:13;;;;;;;3.78;1.50;;;12.00;99.90;;;;;;4995772;28;20023;-77
2023/10/15 10:20:38;;;;;;;1.65;1.05;;;11.90;99.90;;;;;;5025898;28;20083;-77
2023/10/15 10:23:06;;;;;;;2.92;1.20;;;11.90;99.90;;;;;;5051113;28;20029;-77
2023/10/15 10:25:45;;;;;;;1.17;0.70;;;11.90;99.90;;;;;;5035111;28;20063;-78
2023/10/15 10:28:22;;;;;;;2.08;0.65;;;11.90;99.90;;;;;;5069380;28;20041;-81
2023/10/15 10:30:52;;;;;;;2.00;0.75;;;11.90;99.90;;;;;;5074361;28;20029;-81
2023/10/15 10:33:39;;;;;;;3.75;1.63;;;11.90;99.90;;;;;;5072804;28;20025;-77
2023/10/15 10:36:29;;;;;;;1.38;0.50;;;12.00;99.90;;;;;;5054817;28;20021;-77
2023/10/15 10:39:17;;;;;;;5.78;2.70;;;12.00;99.50;;;;;;5060372;28;20037;-77
2023/10/15 10:41:51;;;;;;;6.10;4.22;;;12.00;99.90;;;;;;5070919;28;20404;-77
2023/10/15 10:44:22;;;;;;;4.10;2.90;;;12.00;99.90;;;;;;5056144;28;20044;-79
2023/10/15 10:46:50;;;;;;;6.10;3.92;;;12.00;99.90;;;;;;5071794;28;20558;-79
2023/10/15 10:49:18;;;;;;;4.45;1.98;;;12.00;99.90;;;;;;5056622;28;20485;-78
2023/10/15 10:52:14;;;;;;;4.38;2.58;;;12.00;99.90;;;;;;5055244;28;20016;-78
2023/10/15 10:54:40;;;;;;;1.42;1.27;;;12.00;99.90;;;;;;5055075;28;20484;-78
2023/10/15 10:57:07;;;;;;;1.65;1.55;;;12.00;99.90;;;;;;5070172;28;20100;-79
2023/10/15 10:59:34;;;;;;;2.38;1.80;;;11.90;99.90;;;;;;5070344;28;20127;-77
2023/10/15 11:02:00;;;;;;;4.35;1.40;;;12.00;99.90;;;;;;5069906;28;20033;-77
2023/10/15 11:04:26;;;;;;;3.80;1.40;;;12.10;99.90;;;;;;5069875;28;20025;-78
2023/10/15 11:06:52;;;;;;;3.50;1.70;;;12.10;99.90;;;;;;5069632;28;20029;-78
2023/10/15 11:09:22;;;;;;;3.88;1.40;;;12.20;99.90;;;;;;5069605;28;20029;-78
2023/10/15 11:11:49;;;;;;;3.15;1.42;;;12.20;99.90;;;;;;5054279;28;20021;-78
2023/10/15 11:14:16;;;;;;;3.03;0.68;;;12.10;99.90;;;;;;5054648;28;20025;-77
2023/10/15 11:16:42;;;;;;;2.78;0.47;;;12.10;95.90;;;;;;5054531;28;20078;-76
2023/10/15 11:19:19;;;;;;;1.38;0.63;;;12.20;95.10;;;;;;5068587;28;20025;-78
2023/10/15 11:21:46;;;;;;;0.93;0.68;;;12.30;99.90;;;;;;5070564;28;20059;-80
2023/10/15 11:24:12;;;;;;;2.33;0.73;;;12.30;99.90;;;;;;5055403;28;20025;-78
2023/10/15 11:26:43;;;;;;;0.85;0.82;;;12.30;99.90;;;;;;5071227;28;20036;-80
2023/10/15 11:29:13;;;;;;;2.45;0.80;;;12.40;99.90;;;;;;5071290;28;20112;-81
2023/10/15 11:31:45;;;;;;;2.38;0.77;;;12.40;99.10;;;;;;5056439;28;20523;-81
2023/10/15 11:34:21;;;;;;;1.48;0.50;;;12.50;96.80;;;;;;5062990;28;20124;-81
2023/10/15 11:36:50;;;;;;;1.88;0.30;;;12.50;95.00;;;;;;5033104;28;20033;-76
2023/10/15 11:42:03;;;;;;;1.63;1.00;;;12.50;96.80;;;;;;5035187;28;20109;-76
2023/10/15 11:44:31;;;;;;;1.58;0.90;;;12.50;98.50;;;;;;5048913;28;20156;-78
2023/10/15 11:47:00;;;;;;;2.05;0.30;;;12.60;99.90;;;;;;5048750;28;20033;-76
2023/10/15 11:49:26;;;;;;;1.00;0.50;;;12.60;95.90;;;;;;5049189;28;20033;-79
2023/10/15 11:51:56;;;;;;;2.50;0.85;;;12.50;82.70;;;;;;5049250;28;20481;-78
2023/10/15 11:54:30;;;;;;;1.58;0.20;;;12.50;91.10;;;;;;5049073;28;20029;-77
2023/10/15 11:56:59;;;;;;;0.80;0.40;;;12.40;78.30;;;;;;5048619;28;20018;-78
2023/10/15 11:59:26;;;;;;;1.50;0.32;;;12.40;79.10;;;;;;5048801;28;20044;-78
2023/10/15 12:01:51;;;;;;;2.30;0.50;;;12.40;81.60;;;;;;5048992;28;20048;-78
2023/10/15 12:04:19;;;;;;;0.77;0.50;;;12.30;82.60;;;;;;5048920;28;20495;-78
2023/10/15 12:06:45;;;;;;;0.55;0.40;;;12.30;79.90;;;;;;5048599;28;20029;-79
2023/10/15 12:09:16;;;;;;;0.90;0.30;;;12.30;81.00;;;;;;5033560;28;20029;-79
2023/10/15 12:11:44;;;;;;;1.20;0.70;;;12.30;82.70;;;;;;5049577;28;20032;-79
2023/10/15 12:14:11;;;;;;;0.75;0.60;;;12.30;87.10;;;;;;5049641;28;20025;-80
2023/10/15 12:16:40;;;;;;;4.10;0.68;;;12.20;86.60;;;;;;5049802;28;20021;-81
2023/10/15 12:19:08;;;;;;;1.80;0.70;;;12.20;88.30;;;;;;5034414;28;20026;-79
2023/10/15 12:21:36;;;;;;;1.60;0.40;;;12.20;90.10;;;;;;5034450;28;20392;-80
2023/10/15 12:24:02;;;;;;;0.73;0.40;;;12.30;92.60;;;;;;5049639;28;20032;-79
2023/10/15 12:26:27;;;;;;;1.48;0.50;;;12.30;96.60;;;;;;5049556;28;20029;-80
2023/10/15 12:28:54;;;;;;;1.45;0.60;;;12.30;98.10;;;;;;5033357;28;20034;-80
2023/10/15 12:31:19;;;;;;;3.67;1.30;;;12.30;97.20;;;;;;5033414;28;20025;-79
2023/10/15 12:33:46;;;;;;;2.47;1.63;;;12.40;99.90;;;;;;5049259;28;20021;-81
2023/10/15 12:36:12;;;;;;;2.15;1.70;;;12.20;99.90;;;;;;5048551;28;20024;-81
2023/10/15 12:38:43;;;;;;;2.33;1.20;;;12.00;99.90;;;;;;5033812;28;20021;-79
2023/10/15 12:41:09;;;;;;;3.72;1.10;;;11.90;99.90;;;;;;5033963;28;20584;-79
2023/10/15 12:43:36;;;;;;;1.92;1.17;;;11.90;99.90;;;;;;5033728;28;20497;-80
2023/10/15 12:46:02;;;;;;;2.05;1.10;;;12.10;99.90;;;;;;5048666;28;20032;-79
2023/10/15 12:48:29;;;;;;;0.60;0.50;;;12.00;99.90;;;;;;5033769;28;20025;-80
2023/10/15 12:50:56;;;;;;;3.35;1.30;;;11.90;99.90;;;;;;5032594;28;20029;-80
2023/10/15 12:53:28;;;;;;;2.22;1.35;;;11.90;99.90;;;;;;5033705;28;20083;-80
2023/10/15 12:55:54;;;;;;;9.18;2.50;;;11.90;99.90;;;;;;5049268;28;20021;-81
2023/10/15 12:58:20;;;;;;;4.50;2.85;;;12.00;99.90;;;;;;5048963;28;20048;-81
2023/10/15 13:00:48;;;;;;;3.42;1.80;;;11.90;99.90;;;;;;5049577;28;20501;-80
2023/10/15 13:03:16;;;;;;;6.85;1.73;;;12.00;99.90;;;;;;5049869;28;20026;-81